sensor_id;sensor_type;location;lat;lon;timestamp;temperature;humidity
46926;DHT22;32667;48.248;-1.700;2023-04-03T00:00:33;8.00;75.20
46926;DHT22;32667;48.248;-1.700;2023-04-03T00:02:59;8.00;75.20
46926;DHT22;32667;48.248;-1.700;2023-04-03T00:05:24;8.00;75.10
46926;DHT22;32667;48.248;-1.700;2023-04-03T00:07:50;8.00;75.10
46926;DHT22;32667;48.248;-1.700;2023-04-03T00:10:16;8.00;75.10
46926;DHT22;32667;48.248;-1.700;2023-04-03T00:12:50;8.00;75.00
46926;DHT22;32667;48.248;-1.700;2023-04-03T00:15:16;8.00;75.00
46926;DHT22;32667;48.248;-1.700;2023-04-03T00:17:42;8.00;75.00
46926;DHT22;32667;48.248;-1.700;2023-04-03T00:20:08;8.10;75.00
46926;DHT22;32667;48.248;-1.700;2023-04-03T00:22:34;8.00;74.90
46926;DHT22;32667;48.248;-1.700;2023-04-03T00:24:59;8.00;74.90
46926;DHT22;32667;48.248;-1.700;2023-04-03T00:27:27;8.00;74.90
46926;DHT22;32667;48.248;-1.700;2023-04-03T00:29:54;8.00;74.90
46926;DHT22;32667;48.248;-1.700;2023-04-03T00:32:20;8.00;75.00
46926;DHT22;32667;48.248;-1.700;2023-04-03T00:34:46;8.00;75.00
46926;DHT22;32667;48.248;-1.700;2023-04-03T00:37:12;7.90;75.00
46926;DHT22;32667;48.248;-1.700;2023-04-03T00:39:37;7.90;75.00
46926;DHT22;32667;48.248;-1.700;2023-04-03T00:42:05;7.90;75.00
46926;DHT22;32667;48.248;-1.700;2023-04-03T00:47:01;7.90;75.10
46926;DHT22;32667;48.248;-1.700;2023-04-03T00:49:28;7.80;75.00
46926;DHT22;32667;48.248;-1.700;2023-04-03T00:51:54;7.80;75.10
46926;DHT22;32667;48.248;-1.700;2023-04-03T00:54:21;7.80;75.10
46926;DHT22;32667;48.248;-1.700;2023-04-03T00:56:47;7.80;75.10
46926;DHT22;32667;48.248;-1.700;2023-04-03T00:59:17;7.80;75.10
46926;DHT22;32667;48.248;-1.700;2023-04-03T01:01:46;7.70;75.10
46926;DHT22;32667;48.248;-1.700;2023-04-03T01:04:34;7.70;75.10
46926;DHT22;32667;48.248;-1.700;2023-04-03T01:07:09;7.70;75.10
46926;DHT22;32667;48.248;-1.700;2023-04-03T01:09:36;7.70;75.00
46926;DHT22;32667;48.248;-1.700;2023-04-03T01:12:26;7.70;75.10
46926;DHT22;32667;48.248;-1.700;2023-04-03T01:14:55;7.60;75.10
46926;DHT22;32667;48.248;-1.700;2023-04-03T01:17:28;7.60;75.10
46926;DHT22;32667;48.248;-1.700;2023-04-03T01:25:38;7.50;75.00
46926;DHT22;32667;48.248;-1.700;2023-04-03T01:28:08;7.50;75.10
46926;DHT22;32667;48.248;-1.700;2023-04-03T01:33:38;7.40;75.20
46926;DHT22;32667;48.248;-1.700;2023-04-03T01:36:04;7.40;75.20
46926;DHT22;32667;48.248;-1.700;2023-04-03T01:38:30;7.30;75.10
46926;DHT22;32667;48.248;-1.700;2023-04-03T01:40:56;7.30;75.20
46926;DHT22;32667;48.248;-1.700;2023-04-03T01:43:22;7.30;75.20
46926;DHT22;32667;48.248;-1.700;2023-04-03T01:45:48;7.30;75.20
46926;DHT22;32667;48.248;-1.700;2023-04-03T01:48:15;7.30;75.20
46926;DHT22;32667;48.248;-1.700;2023-04-03T01:50:41;7.30;75.20
46926;DHT22;32667;48.248;-1.700;2023-04-03T01:53:07;7.30;75.20
46926;DHT22;32667;48.248;-1.700;2023-04-03T01:55:33;7.30;75.20
46926;DHT22;32667;48.248;-1.700;2023-04-03T01:57:59;7.20;75.20
46926;DHT22;32667;48.248;-1.700;2023-04-03T02:00:25;7.20;75.20
46926;DHT22;32667;48.248;-1.700;2023-04-03T02:02:52;7.20;75.20
46926;DHT22;32667;48.248;-1.700;2023-04-03T02:05:18;7.20;75.30
46926;DHT22;32667;48.248;-1.700;2023-04-03T02:07:46;7.10;75.30
46926;DHT22;32667;48.248;-1.700;2023-04-03T02:10:13;7.10;75.30
46926;DHT22;32667;48.248;-1.700;2023-04-03T02:12:39;7.00;75.30
46926;DHT22;32667;48.248;-1.700;2023-04-03T02:15:10;7.00;75.40
46926;DHT22;32667;48.248;-1.700;2023-04-03T02:17:43;7.00;75.40
46926;DHT22;32667;48.248;-1.700;2023-04-03T02:20:09;7.00;75.40
46926;DHT22;32667;48.248;-1.700;2023-04-03T02:22:35;7.00;75.40
46926;DHT22;32667;48.248;-1.700;2023-04-03T02:25:03;7.00;75.40
46926;DHT22;32667;48.248;-1.700;2023-04-03T02:27:31;7.00;75.40
46926;DHT22;32667;48.248;-1.700;2023-04-03T02:29:57;7.00;75.40
46926;DHT22;32667;48.248;-1.700;2023-04-03T02:32:23;7.00;75.30
46926;DHT22;32667;48.248;-1.700;2023-04-03T02:34:49;7.00;75.20
46926;DHT22;32667;48.248;-1.700;2023-04-03T02:37:17;7.10;75.20
46926;DHT22;32667;48.248;-1.700;2023-04-03T02:39:43;7.10;75.10
46926;DHT22;32667;48.248;-1.700;2023-04-03T02:42:09;7.10;75.00
46926;DHT22;32667;48.248;-1.700;2023-04-03T02:44:35;7.20;75.00
46926;DHT22;32667;48.248;-1.700;2023-04-03T02:47:01;7.10;74.80
46926;DHT22;32667;48.248;-1.700;2023-04-03T02:49:28;7.10;74.80
46926;DHT22;32667;48.248;-1.700;2023-04-03T02:51:54;7.10;74.90
46926;DHT22;32667;48.248;-1.700;2023-04-03T02:54:19;7.10;74.90
46926;DHT22;32667;48.248;-1.700;2023-04-03T02:56:47;7.00;74.90
46926;DHT22;32667;48.248;-1.700;2023-04-03T02:59:13;7.00;75.00
46926;DHT22;32667;48.248;-1.700;2023-04-03T03:01:39;7.00;75.10
46926;DHT22;32667;48.248;-1.700;2023-04-03T03:04:05;6.90;75.00
46926;DHT22;32667;48.248;-1.700;2023-04-03T03:07:06;6.90;75.00
46926;DHT22;32667;48.248;-1.700;2023-04-03T03:09:34;6.90;75.10
46926;DHT22;32667;48.248;-1.700;2023-04-03T03:12:00;6.90;75.00
46926;DHT22;32667;48.248;-1.700;2023-04-03T03:14:28;6.90;75.00
46926;DHT22;32667;48.248;-1.700;2023-04-03T03:16:54;6.80;75.00
46926;DHT22;32667;48.248;-1.700;2023-04-03T03:19:19;6.80;75.00
46926;DHT22;32667;48.248;-1.700;2023-04-03T03:21:45;6.90;75.10
46926;DHT22;32667;48.248;-1.700;2023-04-03T03:24:11;6.80;75.00
46926;DHT22;32667;48.248;-1.700;2023-04-03T03:26:41;6.80;75.00
46926;DHT22;32667;48.248;-1.700;2023-04-03T03:29:07;6.80;74.90
46926;DHT22;32667;48.248;-1.700;2023-04-03T03:31:32;6.80;74.90
46926;DHT22;32667;48.248;-1.700;2023-04-03T03:33:58;6.80;74.90
46926;DHT22;32667;48.248;-1.700;2023-04-03T03:36:24;6.80;74.90
46926;DHT22;32667;48.248;-1.700;2023-04-03T03:38:50;6.80;74.90
46926;DHT22;32667;48.248;-1.700;2023-04-03T03:41:15;6.80;74.90
46926;DHT22;32667;48.248;-1.700;2023-04-03T03:43:41;6.80;74.90
46926;DHT22;32667;48.248;-1.700;2023-04-03T03:46:09;6.80;74.80
46926;DHT22;32667;48.248;-1.700;2023-04-03T03:48:35;6.90;74.80
46926;DHT22;32667;48.248;-1.700;2023-04-03T03:51:01;6.90;74.70
46926;DHT22;32667;48.248;-1.700;2023-04-03T03:53:27;6.90;74.70
46926;DHT22;32667;48.248;-1.700;2023-04-03T03:55:52;6.90;74.60
46926;DHT22;32667;48.248;-1.700;2023-04-03T03:58:18;6.90;74.60
46926;DHT22;32667;48.248;-1.700;2023-04-03T04:00:47;6.90;74.60
46926;DHT22;32667;48.248;-1.700;2023-04-03T04:03:13;6.90;74.60
46926;DHT22;32667;48.248;-1.700;2023-04-03T04:05:39;6.90;74.60
46926;DHT22;32667;48.248;-1.700;2023-04-03T04:08:05;6.80;74.60
46926;DHT22;32667;48.248;-1.700;2023-04-03T04:10:30;6.80;74.70
46926;DHT22;32667;48.248;-1.700;2023-04-03T04:12:56;6.80;74.80
46926;DHT22;32667;48.248;-1.700;2023-04-03T04:15:22;6.80;74.70
46926;DHT22;32667;48.248;-1.700;2023-04-03T04:17:48;6.70;74.70
46926;DHT22;32667;48.248;-1.700;2023-04-03T04:20:14;6.70;74.80
46926;DHT22;32667;48.248;-1.700;2023-04-03T04:22:42;6.70;74.80
46926;DHT22;32667;48.248;-1.700;2023-04-03T04:25:08;6.60;74.90
46926;DHT22;32667;48.248;-1.700;2023-04-03T04:27:34;6.50;75.00
46926;DHT22;32667;48.248;-1.700;2023-04-03T04:30:00;6.50;75.10
46926;DHT22;32667;48.248;-1.700;2023-04-03T04:32:26;6.40;75.10
46926;DHT22;32667;48.248;-1.700;2023-04-03T04:34:52;6.30;75.20
46926;DHT22;32667;48.248;-1.700;2023-04-03T04:37:17;6.30;75.30
46926;DHT22;32667;48.248;-1.700;2023-04-03T04:39:46;6.30;75.30
46926;DHT22;32667;48.248;-1.700;2023-04-03T04:42:12;6.20;75.30
46926;DHT22;32667;48.248;-1.700;2023-04-03T04:44:41;6.20;75.30
46926;DHT22;32667;48.248;-1.700;2023-04-03T04:47:06;6.20;75.30
46926;DHT22;32667;48.248;-1.700;2023-04-03T04:49:34;6.20;75.30
46926;DHT22;32667;48.248;-1.700;2023-04-03T04:52:07;6.20;75.20
46926;DHT22;32667;48.248;-1.700;2023-04-03T04:54:33;6.10;75.20
46926;DHT22;32667;48.248;-1.700;2023-04-03T04:56:59;6.10;75.30
46926;DHT22;32667;48.248;-1.700;2023-04-03T04:59:25;6.10;75.30
46926;DHT22;32667;48.248;-1.700;2023-04-03T05:01:50;6.10;75.30
46926;DHT22;32667;48.248;-1.700;2023-04-03T05:04:16;6.10;75.30
46926;DHT22;32667;48.248;-1.700;2023-04-03T05:06:45;6.00;75.30
46926;DHT22;32667;48.248;-1.700;2023-04-03T05:09:11;6.00;75.30
46926;DHT22;32667;48.248;-1.700;2023-04-03T05:11:37;6.00;75.30
46926;DHT22;32667;48.248;-1.700;2023-04-03T05:14:03;5.90;75.30
46926;DHT22;32667;48.248;-1.700;2023-04-03T05:16:32;6.00;75.40
46926;DHT22;32667;48.248;-1.700;2023-04-03T05:19:00;5.90;75.30
46926;DHT22;32667;48.248;-1.700;2023-04-03T05:21:29;5.90;75.30
46926;DHT22;32667;48.248;-1.700;2023-04-03T05:23:59;5.90;75.30
46926;DHT22;32667;48.248;-1.700;2023-04-03T05:26:25;5.90;75.30
46926;DHT22;32667;48.248;-1.700;2023-04-03T05:28:52;5.90;75.20
46926;DHT22;32667;48.248;-1.700;2023-04-03T05:31:18;6.00;75.20
46926;DHT22;32667;48.248;-1.700;2023-04-03T05:33:44;5.90;75.10
46926;DHT22;32667;48.248;-1.700;2023-04-03T05:36:11;6.00;75.10
46926;DHT22;32667;48.248;-1.700;2023-04-03T05:38:38;6.00;75.00
46926;DHT22;32667;48.248;-1.700;2023-04-03T05:41:04;6.00;75.00
46926;DHT22;32667;48.248;-1.700;2023-04-03T05:43:30;6.00;74.90
46926;DHT22;32667;48.248;-1.700;2023-04-03T05:45:56;6.00;74.90
46926;DHT22;32667;48.248;-1.700;2023-04-03T05:48:22;6.00;74.90
46926;DHT22;32667;48.248;-1.700;2023-04-03T05:50:50;6.00;74.80
46926;DHT22;32667;48.248;-1.700;2023-04-03T05:53:22;6.00;74.90
46926;DHT22;32667;48.248;-1.700;2023-04-03T05:55:50;6.00;74.90
46926;DHT22;32667;48.248;-1.700;2023-04-03T05:58:16;6.00;74.90
46926;DHT22;32667;48.248;-1.700;2023-04-03T06:00:41;6.00;74.80
46926;DHT22;32667;48.248;-1.700;2023-04-03T06:03:10;6.10;74.80
46926;DHT22;32667;48.248;-1.700;2023-04-03T06:05:36;6.10;74.80
46926;DHT22;32667;48.248;-1.700;2023-04-03T06:08:02;6.10;74.70
46926;DHT22;32667;48.248;-1.700;2023-04-03T06:10:29;6.10;74.70
46926;DHT22;32667;48.248;-1.700;2023-04-03T06:12:54;6.10;74.70
46926;DHT22;32667;48.248;-1.700;2023-04-03T06:15:20;6.10;74.60
46926;DHT22;32667;48.248;-1.700;2023-04-03T06:17:46;6.20;74.70
46926;DHT22;32667;48.248;-1.700;2023-04-03T06:20:15;6.10;74.60
46926;DHT22;32667;48.248;-1.700;2023-04-03T06:22:41;6.10;74.60
46926;DHT22;32667;48.248;-1.700;2023-04-03T06:25:08;6.20;74.60
46926;DHT22;32667;48.248;-1.700;2023-04-03T06:27:34;6.20;74.60
46926;DHT22;32667;48.248;-1.700;2023-04-03T06:30:00;6.20;74.60
46926;DHT22;32667;48.248;-1.700;2023-04-03T06:32:28;6.20;74.50
46926;DHT22;32667;48.248;-1.700;2023-04-03T06:34:54;6.30;74.50
46926;DHT22;32667;48.248;-1.700;2023-04-03T06:37:22;6.30;74.40
46926;DHT22;32667;48.248;-1.700;2023-04-03T06:39:48;6.30;74.40
46926;DHT22;32667;48.248;-1.700;2023-04-03T06:42:14;6.30;74.30
46926;DHT22;32667;48.248;-1.700;2023-04-03T06:44:42;6.40;74.30
46926;DHT22;32667;48.248;-1.700;2023-04-03T06:47:11;6.30;74.20
46926;DHT22;32667;48.248;-1.700;2023-04-03T06:49:38;6.30;74.30
46926;DHT22;32667;48.248;-1.700;2023-04-03T06:52:04;6.30;74.40
46926;DHT22;32667;48.248;-1.700;2023-04-03T06:54:31;6.30;74.50
46926;DHT22;32667;48.248;-1.700;2023-04-03T06:56:57;6.30;74.50
46926;DHT22;32667;48.248;-1.700;2023-04-03T06:59:23;6.30;74.50
46926;DHT22;32667;48.248;-1.700;2023-04-03T07:01:49;6.30;74.50
46926;DHT22;32667;48.248;-1.700;2023-04-03T07:04:15;6.30;74.40
46926;DHT22;32667;48.248;-1.700;2023-04-03T07:06:41;6.30;74.40
46926;DHT22;32667;48.248;-1.700;2023-04-03T07:09:09;6.30;74.40
46926;DHT22;32667;48.248;-1.700;2023-04-03T07:11:37;6.30;74.50
46926;DHT22;32667;48.248;-1.700;2023-04-03T07:14:03;6.20;74.40
46926;DHT22;32667;48.248;-1.700;2023-04-03T07:16:30;6.20;74.50
46926;DHT22;32667;48.248;-1.700;2023-04-03T07:18:56;6.20;74.50
46926;DHT22;32667;48.248;-1.700;2023-04-03T07:21:23;6.20;74.50
46926;DHT22;32667;48.248;-1.700;2023-04-03T07:23:48;6.20;74.50
46926;DHT22;32667;48.248;-1.700;2023-04-03T07:26:14;6.20;74.60
46926;DHT22;32667;48.248;-1.700;2023-04-03T07:28:40;6.20;74.60
46926;DHT22;32667;48.248;-1.700;2023-04-03T07:31:08;6.20;74.60
46926;DHT22;32667;48.248;-1.700;2023-04-03T07:33:37;6.20;74.60
46926;DHT22;32667;48.248;-1.700;2023-04-03T07:36:04;6.30;74.50
46926;DHT22;32667;48.248;-1.700;2023-04-03T07:38:30;6.40;74.40
46926;DHT22;32667;48.248;-1.700;2023-04-03T07:40:56;6.40;74.30
46926;DHT22;32667;48.248;-1.700;2023-04-03T07:43:22;6.40;74.20
46926;DHT22;32667;48.248;-1.700;2023-04-03T07:45:51;6.40;74.20
46926;DHT22;32667;48.248;-1.700;2023-04-03T07:48:19;6.50;74.30
46926;DHT22;32667;48.248;-1.700;2023-04-03T07:50:45;6.50;74.20
46926;DHT22;32667;48.248;-1.700;2023-04-03T07:53:11;6.60;74.10
46926;DHT22;32667;48.248;-1.700;2023-04-03T07:55:37;6.70;74.00
46926;DHT22;32667;48.248;-1.700;2023-04-03T07:58:12;6.70;73.90
46926;DHT22;32667;48.248;-1.700;2023-04-03T08:00:38;6.70;73.90
46926;DHT22;32667;48.248;-1.700;2023-04-03T08:03:05;6.80;73.90
46926;DHT22;32667;48.248;-1.700;2023-04-03T08:05:36;6.80;73.80
46926;DHT22;32667;48.248;-1.700;2023-04-03T08:08:02;6.90;73.80
46926;DHT22;32667;48.248;-1.700;2023-04-03T08:10:32;6.90;73.70
46926;DHT22;32667;48.248;-1.700;2023-04-03T08:12:58;6.90;73.70
46926;DHT22;32667;48.248;-1.700;2023-04-03T08:15:26;7.00;73.70
46926;DHT22;32667;48.248;-1.700;2023-04-03T08:17:53;7.00;73.70
46926;DHT22;32667;48.248;-1.700;2023-04-03T08:20:18;7.00;73.70
46926;DHT22;32667;48.248;-1.700;2023-04-03T08:22:47;7.10;73.70
46926;DHT22;32667;48.248;-1.700;2023-04-03T08:25:13;7.10;73.70
46926;DHT22;32667;48.248;-1.700;2023-04-03T08:27:39;7.10;73.70
46926;DHT22;32667;48.248;-1.700;2023-04-03T08:30:06;7.10;73.70
46926;DHT22;32667;48.248;-1.700;2023-04-03T08:32:33;7.10;73.70
46926;DHT22;32667;48.248;-1.700;2023-04-03T08:34:59;7.10;73.70
46926;DHT22;32667;48.248;-1.700;2023-04-03T08:37:25;7.10;73.70
46926;DHT22;32667;48.248;-1.700;2023-04-03T08:39:52;7.20;73.80
46926;DHT22;32667;48.248;-1.700;2023-04-03T08:45:13;7.20;73.80
46926;DHT22;32667;48.248;-1.700;2023-04-03T08:47:55;7.30;73.80
46926;DHT22;32667;48.248;-1.700;2023-04-03T08:50:38;7.30;73.60
46926;DHT22;32667;48.248;-1.700;2023-04-03T08:53:06;7.40;73.60
46926;DHT22;32667;48.248;-1.700;2023-04-03T08:55:46;7.40;73.40
46926;DHT22;32667;48.248;-1.700;2023-04-03T08:58:16;7.50;73.50
46926;DHT22;32667;48.248;-1.700;2023-04-03T09:00:50;7.50;73.30
46926;DHT22;32667;48.248;-1.700;2023-04-03T09:03:19;7.60;73.30
46926;DHT22;32667;48.248;-1.700;2023-04-03T09:09:07;7.70;73.30
46926;DHT22;32667;48.248;-1.700;2023-04-03T09:14:25;7.70;73.10
46926;DHT22;32667;48.248;-1.700;2023-04-03T09:16:55;7.70;73.20
46926;DHT22;32667;48.248;-1.700;2023-04-03T09:22:25;7.70;73.20
46926;DHT22;32667;48.248;-1.700;2023-04-03T09:27:25;7.70;73.40
46926;DHT22;32667;48.248;-1.700;2023-04-03T09:29:54;7.70;73.40
46926;DHT22;32667;48.248;-1.700;2023-04-03T09:32:30;7.80;73.40
46926;DHT22;32667;48.248;-1.700;2023-04-03T09:35:00;7.80;73.20
46926;DHT22;32667;48.248;-1.700;2023-04-03T09:37:41;7.90;73.10
46926;DHT22;32667;48.248;-1.700;2023-04-03T09:40:32;8.00;73.00
46926;DHT22;32667;48.248;-1.700;2023-04-03T09:43:08;8.00;72.90
46926;DHT22;32667;48.248;-1.700;2023-04-03T09:45:46;8.00;72.90
46926;DHT22;32667;48.248;-1.700;2023-04-03T09:55:52;8.10;73.00
46926;DHT22;32667;48.248;-1.700;2023-04-03T09:58:27;8.10;72.90
46926;DHT22;32667;48.248;-1.700;2023-04-03T10:00:59;8.20;73.00
46926;DHT22;32667;48.248;-1.700;2023-04-03T10:03:35;8.10;73.00
46926;DHT22;32667;48.248;-1.700;2023-04-03T10:06:04;8.20;73.00
46926;DHT22;32667;48.248;-1.700;2023-04-03T10:08:38;8.20;73.10
46926;DHT22;32667;48.248;-1.700;2023-04-03T10:11:15;8.20;73.00
46926;DHT22;32667;48.248;-1.700;2023-04-03T10:13:56;8.30;73.00
46926;DHT22;32667;48.248;-1.700;2023-04-03T10:16:27;8.30;73.00
46926;DHT22;32667;48.248;-1.700;2023-04-03T10:50:31;8.60;72.80
46926;DHT22;32667;48.248;-1.700;2023-04-03T10:53:18;8.70;72.80
46926;DHT22;32667;48.248;-1.700;2023-04-03T10:55:54;8.70;72.70
46926;DHT22;32667;48.248;-1.700;2023-04-03T11:01:01;8.90;72.70
46926;DHT22;32667;48.248;-1.700;2023-04-03T11:03:32;8.90;72.40
46926;DHT22;32667;48.248;-1.700;2023-04-03T11:06:02;9.00;72.50
46926;DHT22;32667;48.248;-1.700;2023-04-03T11:08:51;9.00;72.50
46926;DHT22;32667;48.248;-1.700;2023-04-03T11:11:32;9.00;72.40
46926;DHT22;32667;48.248;-1.700;2023-04-03T11:16:53;9.10;72.50
46926;DHT22;32667;48.248;-1.700;2023-04-03T11:19:27;9.30;72.40
46926;DHT22;32667;48.248;-1.700;2023-04-03T11:27:49;9.50;71.90
46926;DHT22;32667;48.248;-1.700;2023-04-03T11:30:31;9.60;71.90
46926;DHT22;32667;48.248;-1.700;2023-04-03T11:35:37;9.60;71.90
46926;DHT22;32667;48.248;-1.700;2023-04-03T11:38:23;9.70;71.90
46926;DHT22;32667;48.248;-1.700;2023-04-03T11:40:54;9.80;71.90
46926;DHT22;32667;48.248;-1.700;2023-04-03T11:46:00;10.00;71.70
46926;DHT22;32667;48.248;-1.700;2023-04-03T11:53:53;10.20;71.40
46926;DHT22;32667;48.248;-1.700;2023-04-03T12:01:56;10.50;71.10
46926;DHT22;32667;48.248;-1.700;2023-04-03T12:04:25;10.60;71.10
46926;DHT22;32667;48.248;-1.700;2023-04-03T12:06:59;10.70;71.00
46926;DHT22;32667;48.248;-1.700;2023-04-03T12:11:56;10.80;70.80
46926;DHT22;32667;48.248;-1.700;2023-04-03T12:14:24;10.90;70.80
46926;DHT22;32667;48.248;-1.700;2023-04-03T12:16:53;11.00;70.80
46926;DHT22;32667;48.248;-1.700;2023-04-03T12:19:39;11.00;70.60
46926;DHT22;32667;48.248;-1.700;2023-04-03T12:22:19;11.00;70.80
46926;DHT22;32667;48.248;-1.700;2023-04-03T12:24:48;11.10;70.80
46926;DHT22;32667;48.248;-1.700;2023-04-03T12:30:05;11.30;70.60
46926;DHT22;32667;48.248;-1.700;2023-04-03T12:35:27;11.50;70.50
46926;DHT22;32667;48.248;-1.700;2023-04-03T12:43:37;11.70;70.20
46926;DHT22;32667;48.248;-1.700;2023-04-03T12:48:46;11.80;70.00
46926;DHT22;32667;48.248;-1.700;2023-04-03T12:51:40;11.80;70.10
46926;DHT22;32667;48.248;-1.700;2023-04-03T12:56:38;12.10;70.00
46926;DHT22;32667;48.248;-1.700;2023-04-03T12:59:19;12.30;70.10
46926;DHT22;32667;48.248;-1.700;2023-04-03T13:01:59;12.60;69.70
46926;DHT22;32667;48.248;-1.700;2023-04-03T13:04:31;12.80;69.40
46926;DHT22;32667;48.248;-1.700;2023-04-03T13:06:57;13.00;69.20
46926;DHT22;32667;48.248;-1.700;2023-04-03T13:09:27;13.30;69.00
46926;DHT22;32667;48.248;-1.700;2023-04-03T13:12:14;13.50;68.80
46926;DHT22;32667;48.248;-1.700;2023-04-03T13:14:55;13.70;68.50
46926;DHT22;32667;48.248;-1.700;2023-04-03T13:17:22;13.90;68.30
46926;DHT22;32667;48.248;-1.700;2023-04-03T13:19:51;14.00;68.20
46926;DHT22;32667;48.248;-1.700;2023-04-03T13:24:55;14.50;68.10
46926;DHT22;32667;48.248;-1.700;2023-04-03T13:27:23;14.70;67.90
46926;DHT22;32667;48.248;-1.700;2023-04-03T13:29:52;14.90;67.80
46926;DHT22;32667;48.248;-1.700;2023-04-03T13:32:21;15.10;67.70
46926;DHT22;32667;48.248;-1.700;2023-04-03T13:34:48;15.20;67.60
46926;DHT22;32667;48.248;-1.700;2023-04-03T13:37:40;15.30;67.60
46926;DHT22;32667;48.248;-1.700;2023-04-03T13:40:18;15.40;67.60
46926;DHT22;32667;48.248;-1.700;2023-04-03T13:43:05;15.40;67.70
46926;DHT22;32667;48.248;-1.700;2023-04-03T13:45:33;15.60;67.80
46926;DHT22;32667;48.248;-1.700;2023-04-03T13:48:10;15.70;67.70
46926;DHT22;32667;48.248;-1.700;2023-04-03T13:53:19;15.90;67.60
46926;DHT22;32667;48.248;-1.700;2023-04-03T13:58:28;16.30;67.40
46926;DHT22;32667;48.248;-1.700;2023-04-03T14:01:08;16.40;67.30
46926;DHT22;32667;48.248;-1.700;2023-04-03T14:03:54;16.40;67.30
46926;DHT22;32667;48.248;-1.700;2023-04-03T14:06:20;16.40;67.50
46926;DHT22;32667;48.248;-1.700;2023-04-03T14:08:47;16.50;67.60
46926;DHT22;32667;48.248;-1.700;2023-04-03T14:11:34;16.60;67.50
46926;DHT22;32667;48.248;-1.700;2023-04-03T14:14:05;16.70;67.40
46926;DHT22;32667;48.248;-1.700;2023-04-03T14:16:39;16.80;67.30
46926;DHT22;32667;48.248;-1.700;2023-04-03T14:19:06;16.90;67.20
46926;DHT22;32667;48.248;-1.700;2023-04-03T14:21:33;17.00;67.50
46926;DHT22;32667;48.248;-1.700;2023-04-03T14:24:01;17.00;67.30
46926;DHT22;32667;48.248;-1.700;2023-04-03T14:26:28;16.90;67.50
46926;DHT22;32667;48.248;-1.700;2023-04-03T14:28:56;17.00;67.60
46926;DHT22;32667;48.248;-1.700;2023-04-03T14:31:22;17.00;67.60
46926;DHT22;32667;48.248;-1.700;2023-04-03T14:33:52;17.00;67.60
46926;DHT22;32667;48.248;-1.700;2023-04-03T14:36:29;17.00;67.60
46926;DHT22;32667;48.248;-1.700;2023-04-03T14:38:56;17.00;67.80
46926;DHT22;32667;48.248;-1.700;2023-04-03T14:41:25;16.90;67.80
46926;DHT22;32667;48.248;-1.700;2023-04-03T14:43:52;16.90;67.90
46926;DHT22;32667;48.248;-1.700;2023-04-03T14:46:28;16.90;68.10
46926;DHT22;32667;48.248;-1.700;2023-04-03T14:48:55;17.00;68.00
46926;DHT22;32667;48.248;-1.700;2023-04-03T14:51:21;16.90;68.10
46926;DHT22;32667;48.248;-1.700;2023-04-03T14:53:47;16.90;68.20
46926;DHT22;32667;48.248;-1.700;2023-04-03T14:56:24;16.90;68.20
46926;DHT22;32667;48.248;-1.700;2023-04-03T14:58:58;17.00;68.20
46926;DHT22;32667;48.248;-1.700;2023-04-03T15:01:24;17.10;68.00
46926;DHT22;32667;48.248;-1.700;2023-04-03T15:03:50;17.20;68.00
46926;DHT22;32667;48.248;-1.700;2023-04-03T15:06:16;17.20;67.90
46926;DHT22;32667;48.248;-1.700;2023-04-03T15:08:43;17.20;67.90
46926;DHT22;32667;48.248;-1.700;2023-04-03T15:11:12;17.10;68.00
46926;DHT22;32667;48.248;-1.700;2023-04-03T15:13:38;17.10;68.10
46926;DHT22;32667;48.248;-1.700;2023-04-03T15:16:26;17.20;68.20
46926;DHT22;32667;48.248;-1.700;2023-04-03T15:18:51;17.10;68.20
46926;DHT22;32667;48.248;-1.700;2023-04-03T15:21:17;17.10;68.30
46926;DHT22;32667;48.248;-1.700;2023-04-03T15:23:42;17.10;68.40
46926;DHT22;32667;48.248;-1.700;2023-04-03T15:26:08;17.00;68.40
46926;DHT22;32667;48.248;-1.700;2023-04-03T15:28:39;17.00;68.50
46926;DHT22;32667;48.248;-1.700;2023-04-03T15:31:06;16.90;68.50
46926;DHT22;32667;48.248;-1.700;2023-04-03T15:33:33;16.90;68.50
46926;DHT22;32667;48.248;-1.700;2023-04-03T15:35:59;16.80;68.60
46926;DHT22;32667;48.248;-1.700;2023-04-03T15:38:25;16.80;68.70
46926;DHT22;32667;48.248;-1.700;2023-04-03T15:40:51;16.70;68.80
46926;DHT22;32667;48.248;-1.700;2023-04-03T15:43:17;16.70;69.00
46926;DHT22;32667;48.248;-1.700;2023-04-03T15:45:44;16.60;69.00
46926;DHT22;32667;48.248;-1.700;2023-04-03T15:48:10;16.60;69.10
46926;DHT22;32667;48.248;-1.700;2023-04-03T15:50:36;16.50;69.20
46926;DHT22;32667;48.248;-1.700;2023-04-03T15:53:02;16.50;69.20
46926;DHT22;32667;48.248;-1.700;2023-04-03T15:55:30;16.50;69.20
46926;DHT22;32667;48.248;-1.700;2023-04-03T15:57:57;16.50;69.10
46926;DHT22;32667;48.248;-1.700;2023-04-03T16:00:23;16.60;69.10
46926;DHT22;32667;48.248;-1.700;2023-04-03T16:02:53;16.60;69.00
46926;DHT22;32667;48.248;-1.700;2023-04-03T16:05:20;16.50;69.00
46926;DHT22;32667;48.248;-1.700;2023-04-03T16:07:46;16.60;68.90
46926;DHT22;32667;48.248;-1.700;2023-04-03T16:10:14;16.60;68.90
46926;DHT22;32667;48.248;-1.700;2023-04-03T16:12:40;16.60;68.90
46926;DHT22;32667;48.248;-1.700;2023-04-03T16:15:07;16.60;68.90
46926;DHT22;32667;48.248;-1.700;2023-04-03T16:17:34;16.60;68.80
46926;DHT22;32667;48.248;-1.700;2023-04-03T16:20:04;16.40;68.90
46926;DHT22;32667;48.248;-1.700;2023-04-03T16:22:31;16.40;69.40
46926;DHT22;32667;48.248;-1.700;2023-04-03T16:24:59;16.30;69.30
46926;DHT22;32667;48.248;-1.700;2023-04-03T16:27:25;16.20;69.40
46926;DHT22;32667;48.248;-1.700;2023-04-03T16:29:54;16.20;69.40
46926;DHT22;32667;48.248;-1.700;2023-04-03T16:32:21;16.20;69.40
46926;DHT22;32667;48.248;-1.700;2023-04-03T16:34:47;16.20;69.30
46926;DHT22;32667;48.248;-1.700;2023-04-03T16:37:14;16.30;69.20
46926;DHT22;32667;48.248;-1.700;2023-04-03T16:39:40;16.20;69.10
46926;DHT22;32667;48.248;-1.700;2023-04-03T16:42:06;16.30;69.80
46926;DHT22;32667;48.248;-1.700;2023-04-03T16:44:32;16.30;69.10
46926;DHT22;32667;48.248;-1.700;2023-04-03T16:46:57;16.30;69.00
46926;DHT22;32667;48.248;-1.700;2023-04-03T16:49:24;16.20;69.00
46926;DHT22;32667;48.248;-1.700;2023-04-03T16:51:49;16.10;69.80
46926;DHT22;32667;48.248;-1.700;2023-04-03T16:54:15;16.10;69.30
46926;DHT22;32667;48.248;-1.700;2023-04-03T16:56:41;16.10;69.40
46926;DHT22;32667;48.248;-1.700;2023-04-03T16:59:07;16.10;69.40
46926;DHT22;32667;48.248;-1.700;2023-04-03T17:01:33;16.10;69.30
46926;DHT22;32667;48.248;-1.700;2023-04-03T17:03:58;16.10;69.30
46926;DHT22;32667;48.248;-1.700;2023-04-03T17:06:24;16.10;69.20
46926;DHT22;32667;48.248;-1.700;2023-04-03T17:08:51;16.10;69.30
46926;DHT22;32667;48.248;-1.700;2023-04-03T17:11:18;16.00;69.30
46926;DHT22;32667;48.248;-1.700;2023-04-03T17:13:44;16.00;69.30
46926;DHT22;32667;48.248;-1.700;2023-04-03T17:16:13;16.00;69.40
46926;DHT22;32667;48.248;-1.700;2023-04-03T17:18:40;15.90;69.40
46926;DHT22;32667;48.248;-1.700;2023-04-03T17:21:06;15.80;69.50
46926;DHT22;32667;48.248;-1.700;2023-04-03T17:23:33;15.80;69.60
46926;DHT22;32667;48.248;-1.700;2023-04-03T17:26:09;15.70;69.60
46926;DHT22;32667;48.248;-1.700;2023-04-03T17:28:35;15.60;69.70
46926;DHT22;32667;48.248;-1.700;2023-04-03T17:31:02;15.60;69.90
46926;DHT22;32667;48.248;-1.700;2023-04-03T17:33:28;15.50;69.90